sensor_id;sensor_type;location;lat;lon;timestamp;temperature;humidity
4386;DHT22;2207;53.540;10.042;2023-06-26T00:01:03;22.10;63.70
4386;DHT22;2207;53.540;10.042;2023-06-26T00:03:31;22.00;63.90
4386;DHT22;2207;53.540;10.042;2023-06-26T00:05:58;22.00;64.30
4386;DHT22;2207;53.540;10.042;2023-06-26T00:08:25;22.00;64.40
4386;DHT22;2207;53.540;10.042;2023-06-26T00:10:52;21.90;64.50
4386;DHT22;2207;53.540;10.042;2023-06-26T00:13:20;21.90;64.70
4386;DHT22;2207;53.540;10.042;2023-06-26T00:15:46;21.90;64.50
4386;DHT22;2207;53.540;10.042;2023-06-26T00:18:13;21.80;64.40
4386;DHT22;2207;53.540;10.042;2023-06-26T00:20:39;21.80;64.30
4386;DHT22;2207;53.540;10.042;2023-06-26T00:23:06;21.70;64.20
4386;DHT22;2207;53.540;10.042;2023-06-26T00:25:33;21.70;64.20
4386;DHT22;2207;53.540;10.042;2023-06-26T00:27:59;21.60;64.20
4386;DHT22;2207;53.540;10.042;2023-06-26T00:30:27;21.60;64.20
4386;DHT22;2207;53.540;10.042;2023-06-26T00:32:54;21.50;64.20
4386;DHT22;2207;53.540;10.042;2023-06-26T00:35:20;21.50;64.20
4386;DHT22;2207;53.540;10.042;2023-06-26T00:37:47;21.50;64.20
4386;DHT22;2207;53.540;10.042;2023-06-26T00:40:14;21.40;64.10
4386;DHT22;2207;53.540;10.042;2023-06-26T00:42:41;21.40;64.30
4386;DHT22;2207;53.540;10.042;2023-06-26T00:45:07;21.40;64.20
4386;DHT22;2207;53.540;10.042;2023-06-26T00:47:35;21.40;64.30
4386;DHT22;2207;53.540;10.042;2023-06-26T00:50:02;21.30;64.10
4386;DHT22;2207;53.540;10.042;2023-06-26T00:52:30;21.30;64.40
4386;DHT22;2207;53.540;10.042;2023-06-26T00:54:56;21.30;64.60
4386;DHT22;2207;53.540;10.042;2023-06-26T00:57:24;21.30;64.90
4386;DHT22;2207;53.540;10.042;2023-06-26T00:59:50;21.30;65.40
4386;DHT22;2207;53.540;10.042;2023-06-26T01:02:17;21.20;65.10
4386;DHT22;2207;53.540;10.042;2023-06-26T01:04:47;21.20;65.20
4386;DHT22;2207;53.540;10.042;2023-06-26T01:07:14;21.20;65.50
4386;DHT22;2207;53.540;10.042;2023-06-26T01:09:41;21.20;65.30
4386;DHT22;2207;53.540;10.042;2023-06-26T01:12:08;21.10;65.50
4386;DHT22;2207;53.540;10.042;2023-06-26T01:14:34;21.10;65.50
4386;DHT22;2207;53.540;10.042;2023-06-26T01:17:02;21.00;65.30
4386;DHT22;2207;53.540;10.042;2023-06-26T01:19:29;21.00;65.40
4386;DHT22;2207;53.540;10.042;2023-06-26T01:21:58;21.00;65.40
4386;DHT22;2207;53.540;10.042;2023-06-26T01:24:28;21.00;65.40
4386;DHT22;2207;53.540;10.042;2023-06-26T01:26:59;21.00;65.70
4386;DHT22;2207;53.540;10.042;2023-06-26T01:29:27;20.90;65.60
4386;DHT22;2207;53.540;10.042;2023-06-26T01:31:54;20.90;65.50
4386;DHT22;2207;53.540;10.042;2023-06-26T01:34:21;20.90;65.80
4386;DHT22;2207;53.540;10.042;2023-06-26T01:36:48;20.90;66.00
4386;DHT22;2207;53.540;10.042;2023-06-26T01:39:15;20.80;65.90
4386;DHT22;2207;53.540;10.042;2023-06-26T01:41:42;20.80;66.20
4386;DHT22;2207;53.540;10.042;2023-06-26T01:44:17;20.80;66.40
4386;DHT22;2207;53.540;10.042;2023-06-26T01:46:47;20.70;66.70
4386;DHT22;2207;53.540;10.042;2023-06-26T01:49:18;20.70;67.30
4386;DHT22;2207;53.540;10.042;2023-06-26T01:51:50;20.70;67.90
4386;DHT22;2207;53.540;10.042;2023-06-26T01:54:18;20.70;67.90
4386;DHT22;2207;53.540;10.042;2023-06-26T01:56:45;20.60;68.20
4386;DHT22;2207;53.540;10.042;2023-06-26T01:59:16;20.60;68.70
4386;DHT22;2207;53.540;10.042;2023-06-26T02:01:44;20.60;69.10
4386;DHT22;2207;53.540;10.042;2023-06-26T02:04:10;20.60;69.10
4386;DHT22;2207;53.540;10.042;2023-06-26T02:06:37;20.60;69.50
4386;DHT22;2207;53.540;10.042;2023-06-26T02:09:03;20.50;69.50
4386;DHT22;2207;53.540;10.042;2023-06-26T02:11:30;20.50;69.60
4386;DHT22;2207;53.540;10.042;2023-06-26T02:13:57;20.50;69.70
4386;DHT22;2207;53.540;10.042;2023-06-26T02:16:24;20.50;69.60
4386;DHT22;2207;53.540;10.042;2023-06-26T02:18:51;20.40;69.70
4386;DHT22;2207;53.540;10.042;2023-06-26T02:21:17;20.40;69.80
4386;DHT22;2207;53.540;10.042;2023-06-26T02:23:44;20.40;69.90
4386;DHT22;2207;53.540;10.042;2023-06-26T02:26:11;20.40;69.90
4386;DHT22;2207;53.540;10.042;2023-06-26T02:28:37;20.40;69.70
4386;DHT22;2207;53.540;10.042;2023-06-26T02:31:04;20.30;69.70
4386;DHT22;2207;53.540;10.042;2023-06-26T02:33:32;20.30;69.80
4386;DHT22;2207;53.540;10.042;2023-06-26T02:35:59;20.30;69.90
4386;DHT22;2207;53.540;10.042;2023-06-26T02:38:25;20.30;69.80
4386;DHT22;2207;53.540;10.042;2023-06-26T02:40:52;20.30;69.80
4386;DHT22;2207;53.540;10.042;2023-06-26T02:43:18;20.30;69.70
4386;DHT22;2207;53.540;10.042;2023-06-26T02:45:45;20.30;69.80
4386;DHT22;2207;53.540;10.042;2023-06-26T02:48:11;20.30;70.20
4386;DHT22;2207;53.540;10.042;2023-06-26T02:50:39;20.30;70.20
4386;DHT22;2207;53.540;10.042;2023-06-26T02:53:06;20.30;70.10
4386;DHT22;2207;53.540;10.042;2023-06-26T02:55:33;20.30;70.10
4386;DHT22;2207;53.540;10.042;2023-06-26T02:58:00;20.30;70.20
4386;DHT22;2207;53.540;10.042;2023-06-26T03:00:26;20.30;70.20
4386;DHT22;2207;53.540;10.042;2023-06-26T03:02:55;20.30;70.20
4386;DHT22;2207;53.540;10.042;2023-06-26T03:05:21;20.30;70.10
4386;DHT22;2207;53.540;10.042;2023-06-26T03:07:50;20.30;70.00
4386;DHT22;2207;53.540;10.042;2023-06-26T03:10:17;20.30;69.90
4386;DHT22;2207;53.540;10.042;2023-06-26T03:12:43;20.30;69.80
4386;DHT22;2207;53.540;10.042;2023-06-26T03:15:10;20.30;69.70
4386;DHT22;2207;53.540;10.042;2023-06-26T03:17:37;20.30;69.70
4386;DHT22;2207;53.540;10.042;2023-06-26T03:20:04;20.30;69.60
4386;DHT22;2207;53.540;10.042;2023-06-26T03:22:32;20.30;69.50
4386;DHT22;2207;53.540;10.042;2023-06-26T03:25:00;20.40;69.60
4386;DHT22;2207;53.540;10.042;2023-06-26T03:27:26;20.40;69.50
4386;DHT22;2207;53.540;10.042;2023-06-26T03:29:53;20.40;69.60
4386;DHT22;2207;53.540;10.042;2023-06-26T03:32:19;20.40;69.40
4386;DHT22;2207;53.540;10.042;2023-06-26T03:34:46;20.50;69.50
4386;DHT22;2207;53.540;10.042;2023-06-26T03:37:12;20.50;69.30
4386;DHT22;2207;53.540;10.042;2023-06-26T03:39:39;20.50;69.20
4386;DHT22;2207;53.540;10.042;2023-06-26T03:42:07;20.60;69.20
4386;DHT22;2207;53.540;10.042;2023-06-26T03:44:34;20.60;69.10
4386;DHT22;2207;53.540;10.042;2023-06-26T03:47:00;20.70;69.10
4386;DHT22;2207;53.540;10.042;2023-06-26T03:49:27;20.70;69.00
4386;DHT22;2207;53.540;10.042;2023-06-26T03:51:53;20.70;68.90
4386;DHT22;2207;53.540;10.042;2023-06-26T03:54:20;20.80;68.90
4386;DHT22;2207;53.540;10.042;2023-06-26T03:56:46;20.80;68.90
4386;DHT22;2207;53.540;10.042;2023-06-26T03:59:14;20.90;68.90
4386;DHT22;2207;53.540;10.042;2023-06-26T04:01:40;20.90;68.70
4386;DHT22;2207;53.540;10.042;2023-06-26T04:04:07;21.00;68.80
4386;DHT22;2207;53.540;10.042;2023-06-26T04:06:34;21.10;68.70
4386;DHT22;2207;53.540;10.042;2023-06-26T04:09:00;21.10;68.50
4386;DHT22;2207;53.540;10.042;2023-06-26T04:11:29;21.20;68.40
4386;DHT22;2207;53.540;10.042;2023-06-26T04:13:56;21.30;68.50
4386;DHT22;2207;53.540;10.042;2023-06-26T04:16:25;21.40;68.60
4386;DHT22;2207;53.540;10.042;2023-06-26T04:18:51;21.50;68.30
4386;DHT22;2207;53.540;10.042;2023-06-26T04:21:18;21.50;68.10
4386;DHT22;2207;53.540;10.042;2023-06-26T04:23:45;21.60;68.00
4386;DHT22;2207;53.540;10.042;2023-06-26T04:26:12;21.70;68.00
4386;DHT22;2207;53.540;10.042;2023-06-26T04:28:40;21.80;67.80
4386;DHT22;2207;53.540;10.042;2023-06-26T04:31:06;22.00;67.70
4386;DHT22;2207;53.540;10.042;2023-06-26T04:33:35;22.00;67.50
4386;DHT22;2207;53.540;10.042;2023-06-26T04:36:02;22.10;67.40
4386;DHT22;2207;53.540;10.042;2023-06-26T04:38:29;22.10;67.30
4386;DHT22;2207;53.540;10.042;2023-06-26T04:40:55;22.20;67.20
4386;DHT22;2207;53.540;10.042;2023-06-26T04:43:22;22.30;67.10
4386;DHT22;2207;53.540;10.042;2023-06-26T04:45:48;22.40;66.90
4386;DHT22;2207;53.540;10.042;2023-06-26T04:48:15;22.50;66.90
4386;DHT22;2207;53.540;10.042;2023-06-26T04:50:43;22.60;66.60
4386;DHT22;2207;53.540;10.042;2023-06-26T04:53:17;22.70;66.50
4386;DHT22;2207;53.540;10.042;2023-06-26T04:55:44;22.80;66.40
4386;DHT22;2207;53.540;10.042;2023-06-26T04:58:11;22.90;66.30
4386;DHT22;2207;53.540;10.042;2023-06-26T05:00:37;23.00;66.00
4386;DHT22;2207;53.540;10.042;2023-06-26T05:03:08;23.00;65.80
4386;DHT22;2207;53.540;10.042;2023-06-26T05:05:34;23.10;65.50
4386;DHT22;2207;53.540;10.042;2023-06-26T05:08:14;23.20;65.40
4386;DHT22;2207;53.540;10.042;2023-06-26T05:10:41;23.30;65.20
4386;DHT22;2207;53.540;10.042;2023-06-26T05:13:07;23.40;65.20
4386;DHT22;2207;53.540;10.042;2023-06-26T05:15:34;23.50;65.20
4386;DHT22;2207;53.540;10.042;2023-06-26T05:18:00;23.70;65.20
4386;DHT22;2207;53.540;10.042;2023-06-26T05:20:27;24.10;64.50
4386;DHT22;2207;53.540;10.042;2023-06-26T05:22:55;24.30;63.60
4386;DHT22;2207;53.540;10.042;2023-06-26T05:25:24;25.10;66.30
4386;DHT22;2207;53.540;10.042;2023-06-26T05:27:50;27.20;62.30
4386;DHT22;2207;53.540;10.042;2023-06-26T05:30:24;29.80;58.10
4386;DHT22;2207;53.540;10.042;2023-06-26T05:32:51;32.20;54.00
4386;DHT22;2207;53.540;10.042;2023-06-26T05:35:18;34.10;51.20
4386;DHT22;2207;53.540;10.042;2023-06-26T05:37:46;35.50;48.90
4386;DHT22;2207;53.540;10.042;2023-06-26T05:40:14;36.70;47.40
4386;DHT22;2207;53.540;10.042;2023-06-26T05:42:42;37.80;46.00
4386;DHT22;2207;53.540;10.042;2023-06-26T05:45:09;38.70;44.70
4386;DHT22;2207;53.540;10.042;2023-06-26T05:47:36;39.60;43.50
4386;DHT22;2207;53.540;10.042;2023-06-26T05:50:03;40.40;42.10
4386;DHT22;2207;53.540;10.042;2023-06-26T05:52:30;41.00;41.10
4386;DHT22;2207;53.540;10.042;2023-06-26T05:54:57;41.40;40.50
4386;DHT22;2207;53.540;10.042;2023-06-26T05:57:25;41.50;39.80
4386;DHT22;2207;53.540;10.042;2023-06-26T05:59:54;41.70;39.40
4386;DHT22;2207;53.540;10.042;2023-06-26T06:02:21;42.20;38.50
4386;DHT22;2207;53.540;10.042;2023-06-26T06:04:49;42.50;37.90
4386;DHT22;2207;53.540;10.042;2023-06-26T06:07:16;42.80;37.10
4386;DHT22;2207;53.540;10.042;2023-06-26T06:09:43;42.90;36.60
4386;DHT22;2207;53.540;10.042;2023-06-26T06:12:09;43.10;36.20
4386;DHT22;2207;53.540;10.042;2023-06-26T06:14:36;43.30;36.00
4386;DHT22;2207;53.540;10.042;2023-06-26T06:17:04;43.40;35.10
4386;DHT22;2207;53.540;10.042;2023-06-26T06:19:31;43.50;34.90
4386;DHT22;2207;53.540;10.042;2023-06-26T06:21:57;43.50;34.50
4386;DHT22;2207;53.540;10.042;2023-06-26T06:24:24;43.70;33.80
4386;DHT22;2207;53.540;10.042;2023-06-26T06:26:50;44.10;33.00
4386;DHT22;2207;53.540;10.042;2023-06-26T06:29:17;44.30;32.70
4386;DHT22;2207;53.540;10.042;2023-06-26T06:31:47;44.70;31.90
4386;DHT22;2207;53.540;10.042;2023-06-26T06:34:16;45.00;31.20
4386;DHT22;2207;53.540;10.042;2023-06-26T06:36:42;45.40;30.50
4386;DHT22;2207;53.540;10.042;2023-06-26T06:39:09;45.70;30.30
4386;DHT22;2207;53.540;10.042;2023-06-26T06:41:35;45.80;29.80
4386;DHT22;2207;53.540;10.042;2023-06-26T06:44:02;46.10;29.40
4386;DHT22;2207;53.540;10.042;2023-06-26T06:46:29;46.30;29.10
4386;DHT22;2207;53.540;10.042;2023-06-26T06:48:55;46.50;28.70
4386;DHT22;2207;53.540;10.042;2023-06-26T06:51:24;46.80;28.40
4386;DHT22;2207;53.540;10.042;2023-06-26T06:53:50;47.00;27.50
4386;DHT22;2207;53.540;10.042;2023-06-26T06:56:17;46.90;27.90
4386;DHT22;2207;53.540;10.042;2023-06-26T06:58:43;47.30;27.50
4386;DHT22;2207;53.540;10.042;2023-06-26T07:01:11;47.70;27.00
4386;DHT22;2207;53.540;10.042;2023-06-26T07:03:38;48.00;26.60
4386;DHT22;2207;53.540;10.042;2023-06-26T07:06:04;48.30;26.40
4386;DHT22;2207;53.540;10.042;2023-06-26T07:08:32;48.70;25.90
4386;DHT22;2207;53.540;10.042;2023-06-26T07:10:59;49.00;25.50
4386;DHT22;2207;53.540;10.042;2023-06-26T07:13:26;48.70;25.40
4386;DHT22;2207;53.540;10.042;2023-06-26T07:15:53;48.70;25.40
4386;DHT22;2207;53.540;10.042;2023-06-26T07:18:19;48.90;24.90
4386;DHT22;2207;53.540;10.042;2023-06-26T07:20:53;48.90;24.70
4386;DHT22;2207;53.540;10.042;2023-06-26T07:23:19;49.20;24.50
4386;DHT22;2207;53.540;10.042;2023-06-26T07:25:47;49.60;24.10
4386;DHT22;2207;53.540;10.042;2023-06-26T07:28:14;50.10;23.70
4386;DHT22;2207;53.540;10.042;2023-06-26T07:30:41;50.80;23.20
4386;DHT22;2207;53.540;10.042;2023-06-26T07:33:07;51.20;22.80
4386;DHT22;2207;53.540;10.042;2023-06-26T07:35:34;51.50;22.50
4386;DHT22;2207;53.540;10.042;2023-06-26T07:38:00;51.50;22.40
4386;DHT22;2207;53.540;10.042;2023-06-26T07:40:27;51.80;22.10
4386;DHT22;2207;53.540;10.042;2023-06-26T07:42:55;53.00;21.40
4386;DHT22;2207;53.540;10.042;2023-06-26T07:45:23;53.70;20.80
4386;DHT22;2207;53.540;10.042;2023-06-26T07:47:50;53.20;21.10
4386;DHT22;2207;53.540;10.042;2023-06-26T07:50:16;51.90;21.90
4386;DHT22;2207;53.540;10.042;2023-06-26T07:52:46;51.00;22.50
4386;DHT22;2207;53.540;10.042;2023-06-26T07:55:13;50.10;23.70
4386;DHT22;2207;53.540;10.042;2023-06-26T07:57:40;49.80;23.40
4386;DHT22;2207;53.540;10.042;2023-06-26T08:00:08;49.10;23.70
4386;DHT22;2207;53.540;10.042;2023-06-26T08:02:35;48.30;24.10
4386;DHT22;2207;53.540;10.042;2023-06-26T08:05:02;47.90;24.40
4386;DHT22;2207;53.540;10.042;2023-06-26T08:07:28;47.40;24.50
4386;DHT22;2207;53.540;10.042;2023-06-26T08:10:09;46.10;25.50
4386;DHT22;2207;53.540;10.042;2023-06-26T08:12:36;44.90;26.40
4386;DHT22;2207;53.540;10.042;2023-06-26T08:15:06;44.00;26.90
4386;DHT22;2207;53.540;10.042;2023-06-26T08:17:34;42.70;27.80
4386;DHT22;2207;53.540;10.042;2023-06-26T08:20:01;42.30;28.10
4386;DHT22;2207;53.540;10.042;2023-06-26T08:22:27;42.30;27.80
4386;DHT22;2207;53.540;10.042;2023-06-26T08:24:54;41.30;28.50
4386;DHT22;2207;53.540;10.042;2023-06-26T08:27:20;40.50;29.30
4386;DHT22;2207;53.540;10.042;2023-06-26T08:29:47;39.70;29.60
4386;DHT22;2207;53.540;10.042;2023-06-26T08:32:13;38.80;30.50
4386;DHT22;2207;53.540;10.042;2023-06-26T08:34:41;38.00;31.40
4386;DHT22;2207;53.540;10.042;2023-06-26T08:37:08;37.20;32.30
4386;DHT22;2207;53.540;10.042;2023-06-26T08:39:35;36.40;33.10
4386;DHT22;2207;53.540;10.042;2023-06-26T08:42:01;35.90;33.60
4386;DHT22;2207;53.540;10.042;2023-06-26T08:44:28;35.70;33.90
4386;DHT22;2207;53.540;10.042;2023-06-26T08:46:54;35.50;34.00
4386;DHT22;2207;53.540;10.042;2023-06-26T08:49:22;35.30;34.20
4386;DHT22;2207;53.540;10.042;2023-06-26T08:51:52;35.00;34.40
4386;DHT22;2207;53.540;10.042;2023-06-26T08:54:19;34.80;34.60
4386;DHT22;2207;53.540;10.042;2023-06-26T08:56:48;34.50;34.80
4386;DHT22;2207;53.540;10.042;2023-06-26T08:59:22;34.10;35.00
4386;DHT22;2207;53.540;10.042;2023-06-26T09:01:49;33.80;35.60
4386;DHT22;2207;53.540;10.042;2023-06-26T09:04:16;33.60;35.70
4386;DHT22;2207;53.540;10.042;2023-06-26T09:06:42;33.60;35.60
4386;DHT22;2207;53.540;10.042;2023-06-26T09:09:11;33.60;35.60
4386;DHT22;2207;53.540;10.042;2023-06-26T09:11:38;33.50;36.00
4386;DHT22;2207;53.540;10.042;2023-06-26T09:14:04;33.40;36.30
4386;DHT22;2207;53.540;10.042;2023-06-26T09:16:32;33.30;36.30
4386;DHT22;2207;53.540;10.042;2023-06-26T09:19:09;33.40;36.40
4386;DHT22;2207;53.540;10.042;2023-06-26T09:21:36;33.30;36.50
4386;DHT22;2207;53.540;10.042;2023-06-26T09:24:03;33.30;36.70
4386;DHT22;2207;53.540;10.042;2023-06-26T09:26:31;33.20;37.20
4386;DHT22;2207;53.540;10.042;2023-06-26T09:28:58;33.20;37.40
4386;DHT22;2207;53.540;10.042;2023-06-26T09:31:24;33.20;37.60
4386;DHT22;2207;53.540;10.042;2023-06-26T09:33:58;33.00;38.00
4386;DHT22;2207;53.540;10.042;2023-06-26T09:36:27;33.00;38.20
4386;DHT22;2207;53.540;10.042;2023-06-26T09:38:53;33.10;38.20
4386;DHT22;2207;53.540;10.042;2023-06-26T09:41:20;32.70;38.60
4386;DHT22;2207;53.540;10.042;2023-06-26T09:43:48;32.30;39.70
4386;DHT22;2207;53.540;10.042;2023-06-26T09:46:15;32.40;39.80
4386;DHT22;2207;53.540;10.042;2023-06-26T09:48:42;32.50;39.80
4386;DHT22;2207;53.540;10.042;2023-06-26T09:51:09;32.00;40.50
4386;DHT22;2207;53.540;10.042;2023-06-26T09:53:36;31.40;41.50
4386;DHT22;2207;53.540;10.042;2023-06-26T09:56:04;30.90;42.30
4386;DHT22;2207;53.540;10.042;2023-06-26T10:01:00;30.20;44.30
4386;DHT22;2207;53.540;10.042;2023-06-26T10:03:27;30.10;44.00
4386;DHT22;2207;53.540;10.042;2023-06-26T10:05:54;29.90;44.30
4386;DHT22;2207;53.540;10.042;2023-06-26T10:08:21;29.50;44.90
4386;DHT22;2207;53.540;10.042;2023-06-26T10:10:48;29.10;45.80
4386;DHT22;2207;53.540;10.042;2023-06-26T10:13:15;28.80;46.30
4386;DHT22;2207;53.540;10.042;2023-06-26T10:15:42;28.50;46.80
4386;DHT22;2207;53.540;10.042;2023-06-26T10:18:11;28.10;47.70
4386;DHT22;2207;53.540;10.042;2023-06-26T10:20:39;27.70;48.40
4386;DHT22;2207;53.540;10.042;2023-06-26T10:23:06;27.10;49.50
4386;DHT22;2207;53.540;10.042;2023-06-26T10:25:34;26.60;51.50
4386;DHT22;2207;53.540;10.042;2023-06-26T10:28:03;26.10;53.70
4386;DHT22;2207;53.540;10.042;2023-06-26T10:30:31;25.60;54.90
4386;DHT22;2207;53.540;10.042;2023-06-26T10:32:59;25.00;56.60
4386;DHT22;2207;53.540;10.042;2023-06-26T10:35:27;24.40;58.70
4386;DHT22;2207;53.540;10.042;2023-06-26T10:37:59;23.70;61.20
4386;DHT22;2207;53.540;10.042;2023-06-26T10:40:27;23.20;62.70
4386;DHT22;2207;53.540;10.042;2023-06-26T10:43:05;22.90;64.70
4386;DHT22;2207;53.540;10.042;2023-06-26T10:45:33;22.70;66.00
4386;DHT22;2207;53.540;10.042;2023-06-26T10:47:59;22.60;66.80
4386;DHT22;2207;53.540;10.042;2023-06-26T10:50:28;22.60;68.00
4386;DHT22;2207;53.540;10.042;2023-06-26T10:53:08;22.70;67.70
4386;DHT22;2207;53.540;10.042;2023-06-26T10:55:35;22.90;67.50
4386;DHT22;2207;53.540;10.042;2023-06-26T10:58:05;23.20;67.20
4386;DHT22;2207;53.540;10.042;2023-06-26T11:00:51;23.20;67.10
4386;DHT22;2207;53.540;10.042;2023-06-26T11:03:24;23.40;67.10
4386;DHT22;2207;53.540;10.042;2023-06-26T11:06:04;23.60;67.40
4386;DHT22;2207;53.540;10.042;2023-06-26T11:08:44;24.10;67.60
4386;DHT22;2207;53.540;10.042;2023-06-26T11:11:10;24.90;66.40
4386;DHT22;2207;53.540;10.042;2023-06-26T11:13:37;25.30;64.50
4386;DHT22;2207;53.540;10.042;2023-06-26T11:16:03;25.60;64.40
4386;DHT22;2207;53.540;10.042;2023-06-26T11:18:31;26.10;63.30
4386;DHT22;2207;53.540;10.042;2023-06-26T11:21:05;26.60;62.00
4386;DHT22;2207;53.540;10.042;2023-06-26T11:23:31;26.90;61.20
4386;DHT22;2207;53.540;10.042;2023-06-26T11:28:26;27.00;59.10
4386;DHT22;2207;53.540;10.042;2023-06-26T11:30:53;26.80;58.30
4386;DHT22;2207;53.540;10.042;2023-06-26T11:33:25;26.50;58.00
4386;DHT22;2207;53.540;10.042;2023-06-26T11:35:52;26.40;58.30
4386;DHT22;2207;53.540;10.042;2023-06-26T11:38:20;26.50;57.90
4386;DHT22;2207;53.540;10.042;2023-06-26T11:40:48;26.80;57.60
4386;DHT22;2207;53.540;10.042;2023-06-26T11:43:14;27.30;56.40
4386;DHT22;2207;53.540;10.042;2023-06-26T11:45:42;27.50;55.30
4386;DHT22;2207;53.540;10.042;2023-06-26T11:48:08;27.10;54.50
4386;DHT22;2207;53.540;10.042;2023-06-26T11:50:36;26.80;54.90
4386;DHT22;2207;53.540;10.042;2023-06-26T11:53:03;26.50;55.10
4386;DHT22;2207;53.540;10.042;2023-06-26T11:55:40;26.10;54.80
4386;DHT22;2207;53.540;10.042;2023-06-26T11:58:07;26.10;55.50
4386;DHT22;2207;53.540;10.042;2023-06-26T12:00:34;26.40;55.00
4386;DHT22;2207;53.540;10.042;2023-06-26T12:03:00;26.60;54.30
4386;DHT22;2207;53.540;10.042;2023-06-26T12:05:28;26.70;53.90
4386;DHT22;2207;53.540;10.042;2023-06-26T12:07:55;26.80;52.50
4386;DHT22;2207;53.540;10.042;2023-06-26T12:10:24;26.90;51.20
4386;DHT22;2207;53.540;10.042;2023-06-26T12:12:52;27.10;50.10
4386;DHT22;2207;53.540;10.042;2023-06-26T12:15:21;27.20;49.70
4386;DHT22;2207;53.540;10.042;2023-06-26T12:17:48;27.30;48.90
4386;DHT22;2207;53.540;10.042;2023-06-26T12:20:18;27.20;48.70
4386;DHT22;2207;53.540;10.042;2023-06-26T12:22:45;27.40;48.00
4386;DHT22;2207;53.540;10.042;2023-06-26T12:25:12;27.50;47.60
4386;DHT22;2207;53.540;10.042;2023-06-26T12:27:38;27.60;47.60
4386;DHT22;2207;53.540;10.042;2023-06-26T12:30:07;27.60;47.60
4386;DHT22;2207;53.540;10.042;2023-06-26T12:32:34;27.60;47.60
4386;DHT22;2207;53.540;10.042;2023-06-26T12:35:01;27.60;47.60
4386;DHT22;2207;53.540;10.042;2023-06-26T12:37:28;27.40;47.90
4386;DHT22;2207;53.540;10.042;2023-06-26T12:39:55;27.30;47.40
4386;DHT22;2207;53.540;10.042;2023-06-26T12:42:21;27.20;47.30
4386;DHT22;2207;53.540;10.042;2023-06-26T12:44:48;27.00;47.10
4386;DHT22;2207;53.540;10.042;2023-06-26T12:47:17;26.90;47.00
4386;DHT22;2207;53.540;10.042;2023-06-26T12:49:44;26.80;46.90
4386;DHT22;2207;53.540;10.042;2023-06-26T12:52:11;26.60;46.90
4386;DHT22;2207;53.540;10.042;2023-06-26T12:54:38;26.40;46.80
4386;DHT22;2207;53.540;10.042;2023-06-26T12:57:05;26.30;47.30
4386;DHT22;2207;53.540;10.042;2023-06-26T12:59:32;26.30;47.40
4386;DHT22;2207;53.540;10.042;2023-06-26T13:01:59;26.40;47.20
4386;DHT22;2207;53.540;10.042;2023-06-26T13:04:27;26.50;46.90
4386;DHT22;2207;53.540;10.042;2023-06-26T13:06:54;26.60;46.70
4386;DHT22;2207;53.540;10.042;2023-06-26T13:09:20;26.70;46.40
4386;DHT22;2207;53.540;10.042;2023-06-26T13:11:47;26.50;46.20
4386;DHT22;2207;53.540;10.042;2023-06-26T13:14:13;26.40;46.60
4386;DHT22;2207;53.540;10.042;2023-06-26T13:16:40;26.30;46.80
4386;DHT22;2207;53.540;10.042;2023-06-26T13:19:07;26.40;46.50
4386;DHT22;2207;53.540;10.042;2023-06-26T13:21:35;26.20;46.50
4386;DHT22;2207;53.540;10.042;2023-06-26T13:24:01;26.10;46.60
4386;DHT22;2207;53.540;10.042;2023-06-26T13:26:29;26.10;46.60
4386;DHT22;2207;53.540;10.042;2023-06-26T13:28:55;26.10;46.60
4386;DHT22;2207;53.540;10.042;2023-06-26T13:31:22;26.20;46.80
4386;DHT22;2207;53.540;10.042;2023-06-26T13:33:48;26.30;45.90
4386;DHT22;2207;53.540;10.042;2023-06-26T13:36:17;26.40;45.50
4386;DHT22;2207;53.540;10.042;2023-06-26T13:38:45;26.30;45.10
4386;DHT22;2207;53.540;10.042;2023-06-26T13:41:13;26.30;45.10
4386;DHT22;2207;53.540;10.042;2023-06-26T13:43:40;26.50;44.50
4386;DHT22;2207;53.540;10.042;2023-06-26T13:46:06;26.70;43.80
4386;DHT22;2207;53.540;10.042;2023-06-26T13:48:33;26.90;43.30
4386;DHT22;2207;53.540;10.042;2023-06-26T13:50:59;27.20;43.00
4386;DHT22;2207;53.540;10.042;2023-06-26T13:53:26;27.30;42.60
4386;DHT22;2207;53.540;10.042;2023-06-26T13:55:54;27.40;42.60
4386;DHT22;2207;53.540;10.042;2023-06-26T13:58:21;27.40;42.60
4386;DHT22;2207;53.540;10.042;2023-06-26T14:00:52;27.40;42.50
4386;DHT22;2207;53.540;10.042;2023-06-26T14:03:18;27.30;42.50
4386;DHT22;2207;53.540;10.042;2023-06-26T14:05:45;27.10;42.80
4386;DHT22;2207;53.540;10.042;2023-06-26T14:08:12;27.00;43.00
4386;DHT22;2207;53.540;10.042;2023-06-26T14:10:39;27.00;43.00
4386;DHT22;2207;53.540;10.042;2023-06-26T14:13:07;27.20;42.60
4386;DHT22;2207;53.540;10.042;2023-06-26T14:15:36;27.40;41.90
4386;DHT22;2207;53.540;10.042;2023-06-26T14:18:05;27.40;41.50
4386;DHT22;2207;53.540;10.042;2023-06-26T14:20:32;27.20;41.50
4386;DHT22;2207;53.540;10.042;2023-06-26T14:22:59;27.00;42.20
4386;DHT22;2207;53.540;10.042;2023-06-26T14:25:25;26.70;42.10
4386;DHT22;2207;53.540;10.042;2023-06-26T14:27:53;26.60;42.70
4386;DHT22;2207;53.540;10.042;2023-06-26T14:30:21;26.50;42.70
4386;DHT22;2207;53.540;10.042;2023-06-26T14:32:48;26.60;42.80
4386;DHT22;2207;53.540;10.042;2023-06-26T14:35:14;27.00;42.20
4386;DHT22;2207;53.540;10.042;2023-06-26T14:37:41;27.10;41.70
4386;DHT22;2207;53.540;10.042;2023-06-26T14:40:09;27.30;41.30
4386;DHT22;2207;53.540;10.042;2023-06-26T14:42:36;27.20;41.20
4386;DHT22;2207;53.540;10.042;2023-06-26T14:45:03;26.90;41.20
4386;DHT22;2207;53.540;10.042;2023-06-26T14:47:31;26.70;41.70
4386;DHT22;2207;53.540;10.042;2023-06-26T14:49:57;26.40;41.90
4386;DHT22;2207;53.540;10.042;2023-06-26T14:52:24;26.20;41.90
4386;DHT22;2207;53.540;10.042;2023-06-26T14:54:50;26.00;41.60
4386;DHT22;2207;53.540;10.042;2023-06-26T14:57:17;25.80;41.60
4386;DHT22;2207;53.540;10.042;2023-06-26T14:59:44;25.50;41.50
4386;DHT22;2207;53.540;10.042;2023-06-26T15:02:10;25.40;41.60
4386;DHT22;2207;53.540;10.042;2023-06-26T15:04:38;25.30;41.50
4386;DHT22;2207;53.540;10.042;2023-06-26T15:07:05;25.20;41.20
4386;DHT22;2207;53.540;10.042;2023-06-26T15:09:32;25.10;41.20
4386;DHT22;2207;53.540;10.042;2023-06-26T15:11:59;25.00;41.30
4386;DHT22;2207;53.540;10.042;2023-06-26T15:14:25;25.00;41.60
4386;DHT22;2207;53.540;10.042;2023-06-26T15:16:52;25.20;41.50
4386;DHT22;2207;53.540;10.042;2023-06-26T15:19:18;25.60;41.20
4386;DHT22;2207;53.540;10.042;2023-06-26T15:21:46;25.90;41.00
4386;DHT22;2207;53.540;10.042;2023-06-26T15:24:13;26.10;40.90
4386;DHT22;2207;53.540;10.042;2023-06-26T15:26:39;25.80;41.10
4386;DHT22;2207;53.540;10.042;2023-06-26T15:29:06;25.50;41.60
4386;DHT22;2207;53.540;10.042;2023-06-26T15:31:32;25.10;42.10
4386;DHT22;2207;53.540;10.042;2023-06-26T15:33:59;24.60;42.70
4386;DHT22;2207;53.540;10.042;2023-06-26T15:36:25;24.30;43.30
4386;DHT22;2207;53.540;10.042;2023-06-26T15:38:53;24.10;43.60
4386;DHT22;2207;53.540;10.042;2023-06-26T15:41:20;24.20;43.60
4386;DHT22;2207;53.540;10.042;2023-06-26T15:43:46;24.30;43.30
4386;DHT22;2207;53.540;10.042;2023-06-26T15:46:13;24.70;43.00
4386;DHT22;2207;53.540;10.042;2023-06-26T15:48:39;25.00;43.10
4386;DHT22;2207;53.540;10.042;2023-06-26T15:51:06;25.20;41.50